»·PEaware :: ASA280 KSEA-KPDX

ASA280 :: KSEA-KPDX

FLIGHT INFORMATION

Flight Status: Arrived
Operator:
Alaska Airlines
More flights by this operator :: More flights under this callsign
Pilot: Ion I. (24133)
Aircraft: BOEING 737-800
(B738)
More flights by this aircraft type
Origin: KSEA Seattle-Tacoma Intl
United States
Destination: KPDX Portland Intl
United States
More flights between these airports :: More routes between these airports
Route: +SEA7 BUWZO KRATR2
File this flight plan on PilotEdge
Remarks:
Altitude:
(Current/Filed)
19,000ft
Speed:
(Current/Filed)
460kts
Departed: 01-Oct-20 07:36 AM
Arrived: 01-Oct-20 08:09 AM
Distance/Time
Traveled:
112nm/0:33
Distance/Time
To Go:
Arrived

Flight Plot

Page will automatically refresh every two minutes.

Flight plan parsing failed; only flown route is shown


Map Options




Map Legend


Flown Route
Filed Route
Departure Airport
Arrival Airport
Navaid (VOR, NDB)
Fix

Horizontal Profiles

Position Reports

Time Latitude Longitude Heading Altitude Ground
Speed
01-Oct-20 07:04 47.444925 -122.302342 146 441ft 0kts
01-Oct-20 07:05 47.444925 -122.302342 146 441ft 0kts
01-Oct-20 07:06 47.444925 -122.302342 146 440ft 0kts
01-Oct-20 07:07 47.444925 -122.302342 146 440ft 0kts
01-Oct-20 07:08 47.444925 -122.302342 146 440ft 0kts
01-Oct-20 07:09 47.444925 -122.302342 146 440ft 0kts
01-Oct-20 07:10 47.444925 -122.302342 146 441ft 0kts
01-Oct-20 07:12 47.444925 -122.302342 146 441ft 0kts
01-Oct-20 07:13 47.444925 -122.302342 146 441ft 0kts
01-Oct-20 07:14 47.444925 -122.302342 146 441ft 0kts
01-Oct-20 07:15 47.444925 -122.302342 146 441ft 0kts
01-Oct-20 07:16 47.444925 -122.302342 146 441ft 0kts
01-Oct-20 07:17 47.444925 -122.302342 146 441ft 0kts
01-Oct-20 07:18 47.444925 -122.302342 146 441ft 0kts
01-Oct-20 07:19 47.444925 -122.302342 146 441ft 0kts
01-Oct-20 07:20 47.444925 -122.302342 146 441ft 0kts
01-Oct-20 07:21 47.444925 -122.302342 146 441ft 0kts
01-Oct-20 07:22 47.444925 -122.302342 146 441ft 0kts
01-Oct-20 07:23 47.444925 -122.302342 146 441ft 0kts
01-Oct-20 07:24 47.444925 -122.302342 146 441ft 0kts
01-Oct-20 07:25 47.444925 -122.302342 146 441ft 0kts
01-Oct-20 07:26 47.445431 -122.302468 188 441ft 2kts
01-Oct-20 07:27 47.445795 -122.302304 201 441ft 0kts
01-Oct-20 07:27 47.445795 -122.302304 201 441ft 0kts
01-Oct-20 07:29 47.445795 -122.302304 201 441ft 0kts
01-Oct-20 07:30 47.446463 -122.302128 333 441ft 5kts
01-Oct-20 07:30 47.447664 -122.304847 267 441ft 7kts
01-Oct-20 07:32 47.451340 -122.306263 0 441ft 14kts
01-Oct-20 07:33 47.456215 -122.306220 0 441ft 18kts
01-Oct-20 07:33 47.461041 -122.306174 0 441ft 20kts
01-Oct-20 07:35 47.463134 -122.307799 179 441ft 14kts
01-Oct-20 07:35 47.443763 -122.307948 179 442ft 167kts
01-Oct-20 07:36 47.392451 -122.304741 175 2617ft 216kts
01-Oct-20 07:37 47.326764 -122.300476 180 5015ft 261kts
01-Oct-20 07:38 47.250970 -122.302337 181 7890ft 280kts
01-Oct-20 07:39 47.171295 -122.304284 182 10596ft 297kts
01-Oct-20 07:40 47.084898 -122.306382 183 13199ft 317kts
01-Oct-20 07:41 46.994561 -122.308574 184 15964ft 332kts
01-Oct-20 07:42 46.899956 -122.309758 183 18519ft 348kts
01-Oct-20 07:43 46.798819 -122.309634 183 19309ft 390kts
01-Oct-20 07:44 46.688881 -122.309606 183 19287ft 384kts
01-Oct-20 07:45 46.584129 -122.309605 183 19142ft 361kts
01-Oct-20 07:46 46.481450 -122.309613 182 16986ft 367kts
01-Oct-20 07:47 46.380579 -122.309599 182 15076ft 356kts
01-Oct-20 07:48 46.283400 -122.309616 183 12976ft 343kts
01-Oct-20 07:49 46.193454 -122.344553 203 11222ft 331kts
01-Oct-20 07:50 46.110276 -122.391373 201 10196ft 301kts
01-Oct-20 07:51 46.039626 -122.429960 201 9564ft 272kts
01-Oct-20 07:52 45.969685 -122.467545 200 8359ft 266kts
01-Oct-20 07:53 45.906411 -122.518386 221 7147ft 259kts
01-Oct-20 07:54 45.853226 -122.586720 221 5937ft 254kts
01-Oct-20 07:55 45.801137 -122.652338 220 5098ft 235kts
01-Oct-20 07:56 45.757206 -122.716425 230 5091ft 226kts
01-Oct-20 07:57 45.762022 -122.801222 294 4809ft 235kts
01-Oct-20 07:58 45.790181 -122.884406 295 3811ft 227kts
01-Oct-20 07:59 45.816756 -122.965616 295 2997ft 221kts
01-Oct-20 08:00 45.817869 -123.045246 215 2982ft 224kts
01-Oct-20 08:01 45.767064 -123.015409 126 3027ft 222kts
01-Oct-20 08:02 45.731643 -122.943827 123 2999ft 219kts
01-Oct-20 08:03 45.701861 -122.871653 118 2998ft 208kts
01-Oct-20 08:04 45.673657 -122.799043 118 3000ft 208kts
01-Oct-20 08:05 45.645999 -122.727673 118 2114ft 186kts
01-Oct-20 08:06 45.623580 -122.669858 118 1229ft 157kts
01-Oct-20 08:07 45.602373 -122.615473 118 391ft 154kts
01-Oct-20 08:08 45.586539 -122.574384 119 38ft 40kts
01-Oct-20 08:09 45.583694 -122.570413 299 38ft 17kts
01-Oct-20 08:10 45.586292 -122.577000 298 38ft 18kts
01-Oct-20 08:11 45.589093 -122.584182 299 38ft 20kts
01-Oct-20 08:12 45.591634 -122.590714 298 38ft 17kts
01-Oct-20 08:13 45.593480 -122.596526 253 38ft 11kts
01-Oct-20 08:14 45.590930 -122.600893 215 38ft 17kts
01-Oct-20 08:15 45.588310 -122.598533 118 38ft 13kts
01-Oct-20 08:16 45.587778 -122.595517 22 38ft 2kts
01-Oct-20 08:17 45.587983 -122.595399 21 38ft 0kts
01-Oct-20 08:18 45.587983 -122.595399 21 38ft 0kts
01-Oct-20 08:19 45.587983 -122.595399 21 38ft 0kts
01-Oct-20 08:20 45.587983 -122.595399 21 38ft 0kts
01-Oct-20 08:21 45.587983 -122.595399 21 38ft 0kts

Navigation Log

Ident Type
Flight plan parsing failed, navigation log unavailable